createdAt,value
2022-09-04T00:00:01.689Z,98.27
2022-09-04T00:02:24.854Z,98.77
2022-09-04T00:04:34.332Z,99.98
2022-09-04T00:06:48.557Z,99.24
2022-09-04T00:09:08.313Z,99.67
2022-09-04T00:11:35.929Z,98.88
2022-09-04T00:13:51.628Z,100.00
2022-09-04T00:16:10.467Z,100.00
2022-09-04T00:18:31.269Z,100.00
2022-09-04T00:20:51.170Z,100.00
2022-09-04T00:23:03.410Z,100.00
2022-09-04T00:25:37.672Z,100.00
2022-09-04T00:27:45.177Z,100.00
2022-09-04T00:30:28.405Z,100.00
2022-09-04T00:32:59.853Z,100.00
2022-09-04T00:35:22.526Z,100.00
2022-09-04T00:37:32.785Z,100.00
2022-09-04T00:40:00.587Z,100.00
2022-09-04T00:42:05.390Z,100.00
2022-09-04T00:44:25.845Z,100.00
2022-09-04T00:46:41.773Z,100.00
2022-09-04T00:49:20.398Z,100.00
2022-09-04T00:51:47.824Z,100.00
2022-09-04T00:54:12.603Z,100.00
2022-09-04T00:56:32.703Z,100.00
2022-09-04T00:59:03.428Z,100.00
2022-09-04T01:01:05.555Z,100.00
2022-09-04T01:03:31.408Z,100.00
2022-09-04T01:06:19.633Z,100.00
2022-09-04T01:08:37.731Z,100.00
2022-09-04T01:11:16.921Z,100.00
2022-09-04T01:13:35.321Z,100.00
2022-09-04T01:15:37.062Z,100.00
2022-09-04T01:17:52.486Z,100.00
2022-09-04T01:20:15.716Z,100.00
2022-09-04T01:22:29.337Z,100.00
2022-09-04T01:24:59.470Z,100.00
2022-09-04T01:27:42.579Z,100.00
2022-09-04T01:29:56.719Z,100.00
2022-09-04T01:32:15.182Z,100.00
2022-09-04T01:34:35.881Z,100.00
2022-09-04T01:37:14.173Z,100.00
2022-09-04T01:39:20.586Z,100.00
2022-09-04T01:41:35.143Z,100.00
2022-09-04T01:43:40.296Z,100.00
2022-09-04T01:46:03.474Z,100.00
2022-09-04T01:48:06.020Z,100.00
2022-09-04T01:50:20.341Z,100.00
2022-09-04T01:52:45.326Z,100.00
2022-09-04T01:54:52.973Z,100.00
2022-09-04T01:57:24.393Z,100.00
2022-09-04T02:00:00.547Z,100.00
2022-09-04T02:02:12.705Z,100.00
2022-09-04T02:04:39.940Z,100.00
2022-09-04T02:06:50.830Z,100.00
2022-09-04T02:09:02.799Z,100.00
2022-09-04T02:11:28.212Z,100.00
2022-09-04T02:13:54.531Z,100.00
2022-09-04T02:16:18.395Z,100.00
2022-09-04T02:18:48.884Z,100.00
2022-09-04T02:21:02.855Z,100.00
2022-09-04T02:23:15.531Z,100.00
2022-09-04T02:25:47.864Z,100.00
2022-09-04T02:28:27.756Z,100.00
2022-09-04T02:30:38.090Z,100.00
2022-09-04T02:32:58.651Z,100.00
2022-09-04T02:35:21.348Z,100.00
2022-09-04T02:37:54.810Z,100.00
2022-09-04T02:40:02.417Z,100.00
2022-09-04T02:42:24.695Z,100.00
2022-09-04T02:44:46.931Z,100.00
2022-09-04T02:47:24.083Z,100.00
2022-09-04T02:49:39.031Z,100.00
2022-09-04T02:52:03.952Z,100.00
2022-09-04T02:54:30.558Z,100.00
2022-09-04T02:56:58.632Z,100.00
2022-09-04T02:59:19.011Z,100.00
2022-09-04T03:01:49.624Z,100.00
2022-09-04T03:04:28.620Z,100.00
2022-09-04T03:06:50.984Z,100.00
2022-09-04T03:09:02.168Z,100.00
2022-09-04T03:11:18.162Z,100.00
2022-09-04T03:13:46.557Z,100.00
2022-09-04T03:16:17.812Z,100.00
2022-09-04T03:19:03.789Z,100.00
2022-09-04T03:21:18.074Z,100.00
2022-09-04T03:23:32.973Z,100.00
2022-09-04T03:25:41.022Z,100.00
2022-09-04T03:27:42.889Z,100.00
2022-09-04T03:30:08.098Z,100.00
2022-09-04T03:32:25.017Z,100.00
2022-09-04T03:34:47.915Z,100.00
2022-09-04T03:37:01.267Z,100.00
2022-09-04T03:39:08.776Z,100.00
2022-09-04T03:41:22.199Z,100.00
2022-09-04T03:43:35.835Z,100.00
2022-09-04T03:45:38.554Z,100.00
2022-09-04T03:47:40.290Z,100.00
2022-09-04T03:50:09.990Z,100.00
2022-09-04T03:52:20.371Z,100.00
2022-09-04T03:54:30.840Z,100.00
2022-09-04T03:57:03.819Z,100.00
2022-09-04T03:59:07.875Z,100.00
2022-09-04T04:01:47.125Z,100.00
2022-09-04T04:04:17.926Z,100.00
2022-09-04T04:06:28.712Z,100.00
2022-09-04T04:08:58.090Z,100.00
2022-09-04T04:11:15.468Z,100.00
2022-09-04T04:13:17.239Z,100.00
2022-09-04T04:15:30.987Z,100.00
2022-09-04T04:17:47.975Z,100.00
2022-09-04T04:19:57.513Z,100.00
2022-09-04T04:22:36.817Z,100.00
2022-09-04T04:24:56.840Z,100.00
2022-09-04T04:27:04.524Z,100.00
2022-09-04T04:29:49.763Z,100.00
2022-09-04T04:32:00.359Z,100.00
2022-09-04T04:34:19.420Z,100.00
2022-09-04T04:36:37.381Z,100.00
2022-09-04T04:38:57.722Z,100.00
2022-09-04T04:41:17.864Z,100.00
2022-09-04T04:43:22.360Z,100.00
2022-09-04T04:45:24.377Z,100.00
2022-09-04T04:47:35.433Z,100.00
2022-09-04T04:50:04.751Z,100.00
2022-09-04T04:52:26.924Z,100.00
2022-09-04T04:54:40.341Z,100.00
2022-09-04T04:57:19.786Z,95.95
2022-09-04T04:59:51.675Z,98.55
2022-09-04T05:01:59.567Z,100.00
2022-09-04T05:04:09.988Z,100.00
2022-09-04T05:06:29.017Z,100.00
2022-09-04T05:08:42.734Z,100.00
2022-09-04T05:11:15.481Z,100.00
2022-09-04T05:13:46.118Z,98.00
2022-09-04T05:16:09.827Z,92.75
2022-09-04T05:18:18.233Z,91.52
2022-09-04T05:20:50.672Z,90.93
2022-09-04T05:23:40.579Z,84.74
2022-09-04T05:26:00.480Z,79.90
2022-09-04T05:28:40.719Z,78.43
2022-09-04T05:30:54.540Z,76.11
2022-09-04T05:32:59.929Z,78.35
2022-09-04T05:35:24.933Z,75.33
2022-09-04T05:37:56.240Z,75.00
2022-09-04T05:40:13.062Z,73.17
2022-09-04T05:42:38.933Z,72.08
2022-09-04T05:45:12.996Z,68.66
2022-09-04T05:47:20.823Z,69.52
2022-09-04T05:49:41.127Z,67.60
2022-09-04T05:51:55.172Z,67.90
2022-09-04T05:54:04.881Z,68.09
2022-09-04T05:56:21.329Z,66.13
2022-09-04T05:59:07.423Z,66.86
2022-09-04T06:01:33.519Z,66.06
2022-09-04T06:03:35.279Z,66.72
2022-09-04T06:06:06.509Z,68.28
2022-09-04T06:08:17.422Z,68.93
2022-09-04T06:10:34.393Z,70.71
2022-09-04T06:12:52.316Z,70.70
2022-09-04T06:15:21.887Z,69.17
2022-09-04T06:17:40.457Z,70.03
2022-09-04T06:20:21.079Z,69.26
2022-09-04T06:22:28.792Z,70.94
2022-09-04T06:24:38.300Z,69.14
2022-09-04T06:26:42.690Z,69.96
2022-09-04T06:29:09.438Z,67.92
2022-09-04T06:31:49.435Z,65.96
2022-09-04T06:34:23.118Z,67.04
2022-09-04T06:36:36.641Z,65.09
2022-09-04T06:39:10.865Z,65.24
2022-09-04T06:41:30.614Z,63.63
2022-09-04T06:43:48.677Z,62.76
2022-09-04T06:46:02.371Z,59.21
2022-09-04T06:48:17.633Z,59.10
2022-09-04T06:50:34.280Z,59.84
2022-09-04T06:53:14.457Z,58.73
2022-09-04T06:55:41.823Z,58.85
2022-09-04T06:58:15.493Z,58.65
2022-09-04T07:00:20.584Z,59.11
2022-09-04T07:02:45.773Z,57.04
2022-09-04T07:04:50.511Z,59.50
2022-09-04T07:06:52.315Z,58.59
2022-09-04T07:09:18.793Z,57.61
2022-09-04T07:11:40.697Z,56.92
2022-09-04T07:14:12.819Z,57.99
2022-09-04T07:16:36.554Z,57.36
2022-09-04T07:18:56.457Z,58.70
2022-09-04T07:21:13.702Z,58.96
2022-09-04T07:23:25.747Z,61.09
2022-09-04T07:25:30.409Z,59.86
2022-09-04T07:27:50.923Z,59.89
2022-09-04T07:30:13.952Z,58.38
2022-09-04T07:32:29.460Z,59.73
2022-09-04T07:34:34.023Z,57.95
2022-09-04T07:36:57.343Z,59.58
2022-09-04T07:39:04.855Z,59.94
2022-09-04T07:41:11.077Z,59.92
2022-09-04T07:43:45.246Z,60.48
2022-09-04T07:45:53.096Z,60.71
2022-09-04T07:48:05.893Z,59.88
2022-09-04T07:50:35.976Z,60.95
2022-09-04T07:52:52.568Z,59.96
2022-09-04T07:55:03.622Z,62.04
2022-09-04T07:57:28.164Z,60.34
2022-09-04T08:00:12.016Z,61.29
2022-09-04T08:02:40.693Z,62.93
2022-09-04T08:04:51.357Z,62.72
2022-09-04T08:07:01.468Z,63.02
2022-09-04T08:09:21.836Z,62.14
2022-09-04T08:11:32.664Z,60.25
2022-09-04T08:14:10.900Z,61.58
2022-09-04T08:16:35.630Z,63.91
2022-09-04T08:18:49.342Z,63.81
2022-09-04T08:21:12.499Z,64.74
2022-09-04T08:23:36.187Z,64.54
2022-09-04T08:26:19.861Z,64.30
2022-09-04T08:28:51.437Z,65.35
2022-09-04T08:31:19.130Z,67.34
2022-09-04T08:33:35.136Z,66.85
2022-09-04T08:35:55.592Z,65.66
2022-09-04T08:38:06.289Z,66.61
2022-09-04T08:40:22.149Z,66.61
2022-09-04T08:42:56.782Z,66.93
2022-09-04T08:45:32.309Z,67.11
2022-09-04T08:48:34.224Z,65.33
2022-09-04T08:50:58.131Z,66.58
2022-09-04T08:53:41.640Z,65.62
2022-09-04T08:55:57.315Z,66.63
2022-09-04T08:57:59.030Z,66.21
2022-09-04T09:00:18.286Z,64.81
2022-09-04T09:02:41.980Z,63.10
2022-09-04T09:05:21.500Z,63.69
2022-09-04T09:07:59.736Z,62.78
2022-09-04T09:10:38.862Z,63.84
2022-09-04T09:12:46.738Z,62.13
2022-09-04T09:15:14.421Z,61.21
2022-09-04T09:17:36.584Z,62.29
2022-09-04T09:20:14.834Z,62.48
2022-09-04T09:22:55.513Z,63.08
2022-09-04T09:25:14.758Z,65.53
2022-09-04T09:27:53.624Z,64.47
2022-09-04T09:30:17.347Z,62.99
2022-09-04T09:32:31.370Z,63.16
2022-09-04T09:34:39.093Z,63.93
2022-09-04T09:36:57.713Z,60.33
2022-09-04T09:38:59.597Z,61.00
2022-09-04T09:41:40.796Z,61.08
2022-09-04T09:44:03.605Z,61.26
2022-09-04T09:46:20.668Z,59.90
2022-09-04T09:48:43.733Z,60.40
2022-09-04T09:51:22.189Z,60.29
2022-09-04T09:54:05.655Z,60.67
2022-09-04T09:56:54.817Z,62.00
2022-09-04T09:59:17.827Z,59.40
2022-09-04T10:01:25.513Z,60.31
2022-09-04T10:03:39.392Z,60.48
2022-09-04T10:06:11.850Z,58.17
2022-09-04T10:08:44.156Z,57.93
2022-09-04T10:11:07.516Z,57.78
2022-09-04T10:13:47.923Z,60.25
2022-09-04T10:16:22.515Z,59.48
2022-09-04T10:18:27.058Z,58.41
2022-09-04T10:20:47.474Z,58.52
2022-09-04T10:23:17.442Z,57.30
2022-09-04T10:25:41.721Z,55.94
2022-09-04T10:28:01.838Z,56.94
2022-09-04T10:30:15.445Z,55.18
2022-09-04T10:32:32.363Z,56.82
2022-09-04T10:35:11.199Z,54.52
2022-09-04T10:37:29.273Z,51.69
2022-09-04T10:39:43.669Z,53.12
2022-09-04T10:42:04.515Z,52.16
2022-09-04T10:44:31.098Z,53.20
2022-09-04T10:46:56.553Z,53.21
2022-09-04T10:49:11.655Z,53.80
2022-09-04T10:51:22.226Z,50.88
2022-09-04T10:53:37.124Z,50.15
2022-09-04T10:55:57.666Z,48.86
2022-09-04T10:58:02.171Z,47.91
2022-09-04T11:00:27.437Z,50.65
2022-09-04T11:03:06.723Z,50.50
2022-09-04T11:05:17.414Z,50.17
2022-09-04T11:07:55.832Z,51.35
2022-09-04T11:10:28.945Z,51.68
2022-09-04T11:12:52.353Z,53.17
2022-09-04T11:15:02.849Z,55.50
2022-09-04T11:17:10.475Z,52.57
2022-09-04T11:19:49.420Z,49.59
2022-09-04T11:22:21.801Z,47.83
2022-09-04T11:25:02.335Z,48.33
2022-09-04T11:27:35.617Z,47.94
2022-09-04T11:29:52.555Z,48.40
2022-09-04T11:32:16.542Z,48.28
2022-09-04T11:34:45.863Z,49.62
2022-09-04T11:36:59.691Z,47.79
2022-09-04T11:39:42.439Z,49.17
2022-09-04T11:42:19.926Z,50.64
2022-09-04T11:44:55.647Z,49.85
2022-09-04T11:47:12.024Z,49.70
2022-09-04T11:49:37.253Z,48.11
2022-09-04T11:51:56.607Z,46.89
2022-09-04T11:54:33.399Z,47.14
2022-09-04T11:56:59.856Z,47.36
2022-09-04T11:59:24.629Z,47.44
2022-09-04T12:01:32.325Z,48.54
2022-09-04T12:03:55.445Z,48.56
2022-09-04T12:06:03.232Z,46.27
2022-09-04T12:08:13.914Z,46.70
2022-09-04T12:10:58.428Z,45.44
2022-09-04T12:13:14.948Z,44.52
2022-09-04T12:15:50.159Z,44.63
2022-09-04T12:17:58.008Z,44.51
2022-09-04T12:20:19.152Z,44.30
2022-09-04T12:22:42.480Z,44.13
2022-09-04T12:25:19.852Z,44.61
2022-09-04T12:27:45.799Z,45.21
2022-09-04T12:29:54.270Z,45.15
2022-09-04T12:31:56.063Z,43.76
2022-09-04T12:34:00.958Z,43.78
2022-09-04T12:36:33.599Z,43.02
2022-09-04T12:38:50.666Z,42.59
2022-09-04T12:41:10.912Z,42.83
2022-09-04T12:43:33.535Z,44.84
2022-09-04T12:45:43.471Z,42.14
2022-09-04T12:47:57.634Z,42.90
2022-09-04T12:50:15.831Z,42.93
2022-09-04T12:52:41.037Z,41.87
2022-09-04T12:54:59.738Z,41.92
2022-09-04T12:57:22.522Z,41.67
2022-09-04T12:59:40.313Z,42.14
2022-09-04T13:02:03.737Z,41.81
2022-09-04T13:04:08.624Z,42.78
2022-09-04T13:06:52.849Z,42.56
2022-09-04T13:09:07.015Z,43.59
2022-09-04T13:11:40.258Z,44.60
2022-09-04T13:13:51.132Z,43.75
2022-09-04T13:16:09.408Z,46.42
2022-09-04T13:18:33.012Z,43.11
2022-09-04T13:20:47.514Z,42.50
2022-09-04T13:23:16.874Z,43.81
2022-09-04T13:25:57.952Z,43.10
2022-09-04T13:28:27.467Z,43.39
2022-09-04T13:30:32.071Z,43.05
2022-09-04T13:33:01.484Z,43.94
2022-09-04T13:35:06.255Z,44.77
2022-09-04T13:37:22.598Z,42.91
2022-09-04T13:39:27.558Z,43.41
2022-09-04T13:41:38.258Z,43.59
2022-09-04T13:44:04.730Z,45.17
2022-09-04T13:46:13.419Z,41.80
2022-09-04T13:48:56.556Z,44.78
2022-09-04T13:51:29.533Z,42.23
2022-09-04T13:53:56.605Z,41.83
2022-09-04T13:56:03.988Z,41.17
2022-09-04T13:58:35.202Z,43.42
2022-09-04T14:00:44.681Z,41.43
2022-09-04T14:02:51.673Z,40.75
2022-09-04T14:05:02.234Z,39.34
2022-09-04T14:07:13.693Z,40.26
2022-09-04T14:09:16.834Z,40.88
2022-09-04T14:12:01.199Z,41.19
2022-09-04T14:14:12.075Z,39.68
2022-09-04T14:16:14.134Z,40.73
2022-09-04T14:18:37.550Z,41.00
2022-09-04T14:20:54.999Z,42.25
2022-09-04T14:23:22.474Z,40.33
2022-09-04T14:25:45.320Z,41.44
2022-09-04T14:27:58.882Z,42.61
2022-09-04T14:30:04.569Z,43.81
2022-09-04T14:32:17.047Z,42.79
2022-09-04T14:34:54.734Z,42.32
2022-09-04T14:37:21.056Z,43.02
2022-09-04T14:39:34.918Z,42.81
2022-09-04T14:41:45.411Z,43.24
2022-09-04T14:44:02.166Z,43.16
2022-09-04T14:46:10.092Z,44.18
2022-09-04T14:48:13.051Z,42.94
2022-09-04T14:50:17.912Z,43.74
2022-09-04T14:52:29.095Z,47.14
2022-09-04T14:54:35.765Z,43.94
2022-09-04T14:57:03.994Z,46.30
2022-09-04T14:59:25.994Z,44.02
2022-09-04T15:01:30.442Z,46.26
2022-09-04T15:03:37.656Z,47.67
2022-09-04T15:05:53.893Z,44.82
2022-09-04T15:08:06.059Z,45.78
2022-09-04T15:10:13.797Z,45.25
2022-09-04T15:12:36.211Z,45.14
2022-09-04T15:14:38.123Z,46.99
2022-09-04T15:16:40.382Z,45.80
2022-09-04T15:18:56.887Z,45.90
2022-09-04T15:21:12.947Z,45.61
2022-09-04T15:23:27.164Z,45.53
2022-09-04T15:25:58.335Z,45.70
2022-09-04T15:28:08.771Z,45.71
2022-09-04T15:30:23.107Z,46.44
2022-09-04T15:32:38.990Z,45.53
2022-09-04T15:34:41.181Z,45.06
2022-09-04T15:36:43.258Z,45.72
2022-09-04T15:38:52.555Z,47.27
2022-09-04T15:41:15.066Z,46.06
2022-09-04T15:43:16.268Z,46.77
2022-09-04T15:45:24.302Z,45.10
2022-09-04T15:48:15.346Z,45.81
2022-09-04T15:50:31.469Z,45.47
2022-09-04T15:52:47.349Z,45.65
2022-09-04T15:55:18.961Z,45.73
2022-09-04T15:57:48.554Z,45.23
2022-09-04T16:00:11.956Z,45.79
2022-09-04T16:02:45.613Z,45.19
2022-09-04T16:04:58.205Z,44.48
2022-09-04T16:07:14.320Z,46.30
2022-09-04T16:09:31.300Z,47.01
2022-09-04T16:11:46.462Z,47.49
2022-09-04T16:13:51.002Z,47.07
2022-09-04T16:16:06.671Z,47.45
2022-09-04T16:18:18.531Z,48.25
2022-09-04T16:21:14.943Z,48.80
2022-09-04T16:23:27.381Z,48.71
2022-09-04T16:25:32.746Z,49.26
2022-09-04T16:27:46.175Z,50.33
2022-09-04T16:29:50.009Z,48.66
2022-09-04T16:31:54.629Z,48.41
2022-09-04T16:34:00.927Z,49.23
2022-09-04T16:36:10.474Z,47.60
2022-09-04T16:38:33.838Z,48.51
2022-09-04T16:40:56.722Z,47.26
2022-09-04T16:43:01.439Z,48.17
2022-09-04T16:45:06.226Z,48.41
2022-09-04T16:47:19.642Z,48.71
2022-09-04T16:49:46.895Z,48.61
2022-09-04T16:52:00.362Z,47.34
2022-09-04T16:54:11.102Z,48.35
2022-09-04T16:56:23.648Z,49.44
2022-09-04T16:58:35.063Z,49.90
2022-09-04T17:00:55.764Z,49.27
2022-09-04T17:03:09.873Z,50.70
2022-09-04T17:05:19.684Z,50.88
2022-09-04T17:07:29.408Z,51.60
2022-09-04T17:10:18.391Z,51.62
2022-09-04T17:12:44.552Z,52.27
2022-09-04T17:14:57.731Z,52.87
2022-09-04T17:17:30.696Z,53.75
2022-09-04T17:19:34.260Z,53.27
2022-09-04T17:29:00.617Z,53.92
2022-09-04T17:29:03.379Z,54.81
2022-09-04T17:29:09.384Z,55.19
2022-09-04T17:29:49.074Z,55.08
2022-09-04T17:32:28.350Z,55.07
2022-09-04T17:40:32.517Z,55.36
2022-09-04T17:40:46.824Z,56.17
2022-09-04T17:40:55.087Z,57.33
2022-09-04T17:42:18.628Z,56.13
2022-09-04T17:44:29.845Z,56.50
2022-09-04T17:46:37.939Z,56.21
2022-09-04T17:48:45.095Z,55.58
2022-09-04T17:50:54.019Z,55.64
2022-09-04T17:53:03.296Z,55.60
2022-09-04T17:55:13.000Z,56.10
2022-09-04T17:57:32.396Z,56.19
2022-09-04T17:59:44.960Z,56.04
2022-09-04T18:02:28.837Z,55.95
2022-09-04T18:04:50.823Z,56.60
2022-09-04T18:07:51.778Z,55.77
2022-09-04T18:10:02.209Z,56.78
2022-09-04T18:12:22.533Z,55.71
2022-09-04T18:15:14.956Z,56.02
2022-09-04T18:17:33.034Z,56.31
2022-09-04T18:19:43.533Z,55.77
2022-09-04T18:22:25.062Z,55.40
2022-09-04T18:24:43.012Z,55.82
2022-09-04T18:27:01.332Z,56.41
2022-09-04T18:32:51.742Z,56.65
2022-09-04T18:37:11.681Z,56.16
2022-09-04T18:37:18.795Z,56.17
2022-09-04T18:37:44.959Z,56.48
2022-09-04T18:39:35.822Z,57.04
2022-09-04T18:46:17.758Z,56.59
2022-09-04T18:50:28.112Z,57.03
2022-09-04T18:50:47.145Z,57.64
2022-09-04T18:50:49.355Z,57.15
2022-09-04T18:52:42.975Z,58.14
2022-09-04T18:54:50.433Z,57.47
2022-09-04T18:57:06.684Z,57.90
2022-09-04T18:59:31.966Z,58.89
2022-09-04T19:02:13.544Z,58.60
2022-09-04T19:04:18.856Z,60.24
2022-09-04T19:06:47.934Z,59.69
2022-09-04T19:08:51.826Z,59.23
2022-09-04T19:10:58.140Z,59.22
2022-09-04T19:13:20.699Z,59.55
2022-09-04T19:15:45.922Z,59.68
2022-09-04T19:17:55.088Z,59.96
2022-09-04T19:20:17.791Z,60.54
2022-09-04T19:22:37.714Z,60.39
2022-09-04T19:24:42.624Z,61.04
2022-09-04T19:27:26.622Z,63.91
2022-09-04T19:29:38.925Z,61.21
2022-09-04T19:32:05.780Z,61.13
2022-09-04T19:34:28.919Z,61.42
2022-09-04T19:36:39.682Z,62.23
2022-09-04T19:45:54.953Z,61.73
2022-09-04T19:46:04.665Z,61.98
2022-09-04T19:46:11.161Z,61.52
2022-09-04T19:46:59.073Z,61.81
2022-09-04T19:52:36.790Z,61.59
2022-09-04T19:53:24.585Z,61.55
2022-09-04T19:54:36.342Z,61.32
2022-09-04T19:57:12.743Z,61.85
2022-09-04T19:59:23.613Z,61.45
2022-09-04T20:01:51.231Z,60.74
2022-09-04T20:04:10.795Z,60.13
2022-09-04T20:06:36.769Z,60.11
2022-09-04T20:08:46.063Z,59.24
2022-09-04T20:11:00.962Z,59.58
2022-09-04T20:13:26.014Z,59.06
2022-09-04T20:15:31.547Z,58.65
2022-09-04T20:18:18.214Z,58.63
2022-09-04T20:20:27.141Z,58.43
2022-09-04T20:22:35.453Z,57.58
2022-09-04T20:24:59.848Z,57.85
2022-09-04T20:27:29.466Z,57.48
2022-09-04T20:29:37.691Z,57.60
2022-09-04T20:32:19.968Z,57.20
2022-09-04T20:34:39.697Z,57.66
2022-09-04T20:36:49.063Z,56.69
2022-09-04T20:39:12.687Z,57.08
2022-09-04T20:41:56.493Z,57.61
2022-09-04T20:44:06.869Z,56.14
2022-09-04T20:51:00.441Z,56.24
2022-09-04T20:52:57.016Z,56.30
2022-09-04T20:52:57.423Z,56.02
2022-09-04T20:54:32.392Z,56.03
2022-09-04T20:57:31.534Z,55.54
2022-09-04T21:03:22.270Z,55.80
2022-09-04T21:03:23.714Z,55.95
2022-09-04T21:04:50.267Z,55.49
2022-09-04T21:07:04.667Z,55.25
2022-09-04T21:09:30.889Z,55.56
2022-09-04T21:11:41.221Z,55.14
2022-09-04T21:13:52.907Z,55.37
2022-09-04T21:16:29.584Z,54.40
2022-09-04T21:19:27.831Z,55.16
2022-09-04T21:21:48.791Z,55.19
2022-09-04T21:24:12.783Z,54.70
2022-09-04T21:26:23.773Z,57.38
2022-09-04T21:28:45.059Z,55.45
2022-09-04T21:31:06.123Z,54.75
2022-09-04T21:33:27.835Z,55.22
2022-09-04T21:36:26.093Z,55.31
2022-09-04T21:39:02.593Z,54.71
2022-09-04T21:41:16.741Z,55.04
2022-09-04T21:43:40.250Z,54.64
2022-09-04T21:46:14.674Z,55.17
2022-09-04T21:49:08.175Z,55.40
2022-09-04T21:51:39.792Z,55.45
2022-09-04T21:53:47.821Z,55.73
2022-09-04T22:00:56.310Z,55.62
2022-09-04T22:02:35.610Z,55.30
2022-09-04T22:02:38.280Z,56.39
2022-09-04T22:04:04.013Z,55.89
2022-09-04T22:09:30.245Z,56.18
2022-09-04T22:13:38.742Z,56.76
2022-09-04T22:13:44.167Z,56.24
2022-09-04T22:14:43.827Z,56.31
2022-09-04T22:17:26.979Z,56.78
2022-09-04T22:19:46.961Z,56.60
2022-09-04T22:22:17.129Z,56.73
2022-09-04T22:25:00.373Z,57.20
2022-09-04T22:27:56.543Z,57.34
2022-09-04T22:30:20.526Z,57.50
2022-09-04T22:32:58.002Z,57.45
2022-09-04T22:35:08.524Z,57.41
2022-09-04T22:37:58.858Z,57.70
2022-09-04T22:40:18.298Z,57.68
2022-09-04T22:42:28.027Z,58.03
2022-09-04T22:44:59.374Z,57.81
2022-09-04T22:47:32.775Z,57.34
2022-09-04T22:50:05.487Z,58.21
2022-09-04T22:52:45.725Z,58.47
2022-09-04T22:55:36.539Z,58.51
2022-09-04T22:57:56.330Z,59.38
2022-09-04T23:00:09.362Z,59.27
2022-09-04T23:05:13.530Z,59.86
2022-09-04T23:13:44.686Z,60.54
2022-09-04T23:13:44.903Z,60.21
2022-09-04T23:13:57.221Z,60.69
2022-09-04T23:15:19.431Z,60.54
2022-09-04T23:18:44.365Z,60.74
2022-09-04T23:26:35.249Z,61.46
2022-09-04T23:26:44.646Z,61.18
2022-09-04T23:26:44.826Z,61.62
2022-09-04T23:28:28.569Z,62.19
2022-09-04T23:30:46.891Z,61.96
2022-09-04T23:33:10.148Z,62.02
2022-09-04T23:35:29.627Z,63.11
2022-09-04T23:38:08.827Z,63.21
2022-09-04T23:40:19.990Z,63.38
2022-09-04T23:43:13.205Z,63.72
2022-09-04T23:45:31.998Z,63.99
2022-09-04T23:48:04.755Z,63.92
2022-09-04T23:50:52.965Z,64.09
2022-09-04T23:53:13.363Z,64.18
2022-09-04T23:55:58.595Z,65.28
2022-09-04T23:58:00.177Z,65.12
